createdAt,value
2023-01-07T00:01:38.017Z,1.10
2023-01-07T00:04:07.469Z,1.10
2023-01-07T00:06:38.414Z,1.10
2023-01-07T00:09:08.548Z,1.10
2023-01-07T00:11:38.733Z,1.10
2023-01-07T00:14:09.511Z,1.10
2023-01-07T00:16:37.657Z,1.00
2023-01-07T00:19:06.698Z,1.00
2023-01-07T00:21:34.396Z,1.00
2023-01-07T00:24:04.061Z,1.00
2023-01-07T00:26:34.109Z,1.00
2023-01-07T00:29:01.604Z,1.00
2023-01-07T00:31:32.863Z,1.00
2023-01-07T00:34:00.516Z,1.00
2023-01-07T00:36:32.007Z,1.10
2023-01-07T00:39:01.518Z,1.00
2023-01-07T00:41:30.190Z,1.00
2023-01-07T00:43:57.796Z,1.00
2023-01-07T00:46:25.740Z,1.00
2023-01-07T00:48:53.022Z,0.90
2023-01-07T00:51:20.454Z,0.80
2023-01-07T00:53:47.745Z,0.80
2023-01-07T00:56:16.263Z,0.80
2023-01-07T00:58:43.782Z,0.90
2023-01-07T01:01:12.218Z,0.80
2023-01-07T01:03:40.577Z,0.90
2023-01-07T01:06:14.397Z,0.80
2023-01-07T01:08:43.871Z,0.80
2023-01-07T01:11:13.076Z,0.70
2023-01-07T01:13:40.762Z,0.80
2023-01-07T01:16:10.866Z,0.80
2023-01-07T01:18:38.694Z,0.80
2023-01-07T01:21:08.424Z,0.80
2023-01-07T01:23:35.932Z,0.90
2023-01-07T01:26:06.271Z,0.90
2023-01-07T01:28:34.352Z,0.90
2023-01-07T01:31:01.838Z,0.90
2023-01-07T01:33:38.192Z,0.80
2023-01-07T01:36:10.232Z,0.80
2023-01-07T01:38:38.014Z,0.70
2023-01-07T01:41:06.606Z,0.70
2023-01-07T01:43:39.060Z,0.70
2023-01-07T01:46:45.146Z,0.70
2023-01-07T01:49:33.294Z,0.80
2023-01-07T01:52:11.106Z,0.90
2023-01-07T01:54:42.304Z,0.90
2023-01-07T01:57:10.059Z,0.80
2023-01-07T01:59:42.549Z,0.90
2023-01-07T02:02:15.463Z,0.80
2023-01-07T02:04:43.206Z,0.70
2023-01-07T02:07:17.707Z,0.70
2023-01-07T02:10:01.354Z,0.70
2023-01-07T02:12:43.947Z,0.70
2023-01-07T02:15:36.366Z,0.80
2023-01-07T02:18:10.261Z,0.70
2023-01-07T02:20:58.420Z,0.70
2023-01-07T02:23:45.384Z,0.70
2023-01-07T02:26:52.355Z,0.60
2023-01-07T02:29:59.928Z,0.60
2023-01-07T02:32:54.577Z,0.60
2023-01-07T02:35:23.865Z,0.60
2023-01-07T02:38:23.881Z,0.60
2023-01-07T02:40:51.049Z,0.60
2023-01-07T02:43:47.425Z,0.60
2023-01-07T02:46:23.372Z,0.70
2023-01-07T02:48:52.488Z,0.70
2023-01-07T02:51:20.675Z,0.70
2023-01-07T02:53:49.794Z,0.60
2023-01-07T02:56:33.239Z,0.70
2023-01-07T02:59:21.309Z,0.70
2023-01-07T03:02:09.856Z,0.60
2023-01-07T03:04:56.865Z,0.60
2023-01-07T03:07:31.644Z,0.70
2023-01-07T03:10:11.592Z,0.70
2023-01-07T03:12:46.160Z,0.70
2023-01-07T03:15:32.361Z,0.70
2023-01-07T03:18:05.210Z,0.70
2023-01-07T03:20:35.969Z,0.70
2023-01-07T03:23:06.713Z,0.70
2023-01-07T03:25:39.259Z,0.60
2023-01-07T03:28:08.103Z,0.60
2023-01-07T03:30:37.161Z,0.60
2023-01-07T03:33:15.051Z,0.60
2023-01-07T03:35:48.187Z,0.60
2023-01-07T03:38:18.528Z,0.50
2023-01-07T03:40:45.853Z,0.50
2023-01-07T03:43:15.051Z,0.60
2023-01-07T03:45:43.413Z,0.60
2023-01-07T03:48:10.842Z,0.60
2023-01-07T03:50:39.176Z,0.70
2023-01-07T03:53:07.636Z,0.70
2023-01-07T03:55:37.147Z,0.70
2023-01-07T03:58:04.332Z,0.60
2023-01-07T04:00:31.675Z,0.50
2023-01-07T04:03:08.469Z,0.50
2023-01-07T04:05:40.175Z,0.40
2023-01-07T04:08:08.665Z,0.40
2023-01-07T04:10:38.573Z,0.40
2023-01-07T04:13:05.740Z,0.40
2023-01-07T04:15:33.138Z,0.30
2023-01-07T04:18:00.394Z,0.30
2023-01-07T04:20:28.262Z,0.20
2023-01-07T04:22:55.624Z,0.20
2023-01-07T04:25:23.374Z,0.30
2023-01-07T04:27:50.789Z,0.20
2023-01-07T04:30:18.550Z,0.20
2023-01-07T04:32:45.764Z,0.20
2023-01-07T04:35:13.736Z,0.20
2023-01-07T04:37:40.891Z,0.20
2023-01-07T04:40:08.878Z,0.20
2023-01-07T04:42:37.368Z,0.10
2023-01-07T04:45:07.355Z,0.10
2023-01-07T04:47:40.331Z,0.10
2023-01-07T04:50:08.604Z,0.10
2023-01-07T04:52:36.917Z,0.10
2023-01-07T04:55:05.465Z,0.20
2023-01-07T04:57:32.947Z,0.20
2023-01-07T05:00:00.423Z,0.20
2023-01-07T05:02:27.632Z,0.20
2023-01-07T05:04:54.824Z,0.20
2023-01-07T05:07:22.419Z,0.20
2023-01-07T05:09:49.713Z,0.30
2023-01-07T05:12:17.799Z,0.20
2023-01-07T05:14:44.963Z,0.30
2023-01-07T05:17:12.575Z,0.30
2023-01-07T05:19:40.569Z,0.30
2023-01-07T05:22:10.888Z,0.30
2023-01-07T05:24:40.637Z,0.20
2023-01-07T05:27:08.129Z,0.20
2023-01-07T05:29:36.842Z,0.10
2023-01-07T05:32:04.208Z,0.10
2023-01-07T05:34:32.714Z,0.10
2023-01-07T05:37:00.194Z,0.10
2023-01-07T05:39:27.316Z,0.00
2023-01-07T05:41:54.627Z,0.00
2023-01-07T05:44:24.563Z,0.10
2023-01-07T05:46:51.749Z,0.00
2023-01-07T05:49:18.876Z,0.00
2023-01-07T05:51:46.038Z,0.00
2023-01-07T05:54:13.143Z,0.00
2023-01-07T05:56:40.277Z,-0.10
2023-01-07T05:59:07.383Z,-0.10
2023-01-07T06:01:34.780Z,-0.10
2023-01-07T06:04:01.891Z,-0.10
2023-01-07T06:06:29.102Z,0.00
2023-01-07T06:08:56.125Z,0.00
2023-01-07T06:11:23.187Z,0.00
2023-01-07T06:13:50.573Z,0.00
2023-01-07T06:16:17.997Z,0.00
2023-01-07T06:18:45.140Z,0.00
2023-01-07T06:21:12.278Z,0.00
2023-01-07T06:23:39.469Z,0.00
2023-01-07T06:26:06.641Z,0.10
2023-01-07T06:28:34.417Z,0.10
2023-01-07T06:31:01.519Z,0.10
2023-01-07T06:33:28.747Z,0.10
2023-01-07T06:35:55.854Z,0.10
2023-01-07T06:38:22.975Z,0.00
2023-01-07T06:40:50.091Z,0.00
2023-01-07T06:43:17.287Z,0.00
2023-01-07T06:45:44.522Z,0.00
2023-01-07T06:48:11.566Z,0.00
2023-01-07T06:50:38.661Z,0.00
2023-01-07T06:53:05.889Z,0.00
2023-01-07T06:55:33.429Z,0.10
2023-01-07T06:58:00.932Z,0.20
2023-01-07T07:00:28.661Z,0.30
2023-01-07T07:02:55.992Z,0.40
2023-01-07T07:05:23.223Z,0.50
2023-01-07T07:07:51.936Z,0.80
2023-01-07T07:10:19.151Z,1.00
2023-01-07T07:12:46.457Z,1.60
2023-01-07T07:15:13.581Z,2.30
2023-01-07T07:17:40.681Z,3.00
2023-01-07T07:20:08.420Z,3.80
2023-01-07T07:22:35.733Z,4.10
2023-01-07T07:25:03.401Z,4.60
2023-01-07T07:27:30.645Z,5.20
2023-01-07T07:29:57.826Z,5.40
2023-01-07T07:32:28.543Z,5.80
2023-01-07T07:34:57.056Z,6.20
2023-01-07T07:37:24.279Z,6.60
2023-01-07T07:39:51.581Z,6.80
2023-01-07T07:42:18.736Z,7.20
2023-01-07T07:44:46.094Z,7.60
2023-01-07T07:47:13.167Z,8.20
2023-01-07T07:49:40.560Z,8.50
2023-01-07T07:52:07.750Z,8.80
2023-01-07T07:54:35.326Z,9.30
2023-01-07T07:57:04.102Z,9.70
2023-01-07T07:59:31.316Z,10.10
2023-01-07T08:01:58.603Z,10.30
2023-01-07T08:04:29.057Z,10.70
2023-01-07T08:06:56.481Z,10.90
2023-01-07T08:09:23.797Z,11.20
2023-01-07T08:11:50.941Z,11.40
2023-01-07T08:14:18.159Z,11.40
2023-01-07T08:16:45.560Z,11.50
2023-01-07T08:19:13.056Z,11.80
2023-01-07T08:21:40.226Z,12.10
2023-01-07T08:24:07.611Z,12.40
2023-01-07T08:26:34.694Z,12.70
2023-01-07T08:29:02.094Z,12.90
2023-01-07T08:31:29.421Z,13.10
2023-01-07T08:33:56.818Z,13.00
2023-01-07T08:36:24.073Z,12.60
2023-01-07T08:38:53.945Z,12.10
2023-01-07T08:41:22.485Z,12.00
2023-01-07T08:43:50.538Z,12.30
2023-01-07T08:46:17.821Z,13.00
2023-01-07T08:48:45.007Z,13.20
2023-01-07T08:51:13.012Z,13.50
2023-01-07T08:53:40.365Z,13.40
2023-01-07T08:56:07.811Z,13.60
2023-01-07T08:58:34.996Z,13.30
2023-01-07T09:01:03.694Z,13.30
2023-01-07T09:03:31.275Z,13.30
2023-01-07T09:05:58.630Z,13.40
2023-01-07T09:08:26.158Z,13.20
2023-01-07T09:10:53.346Z,13.20
2023-01-07T09:13:20.453Z,13.30
2023-01-07T09:15:47.705Z,13.20
2023-01-07T09:18:14.900Z,13.50
2023-01-07T09:20:42.273Z,13.40
2023-01-07T09:23:09.500Z,14.00
2023-01-07T09:25:36.852Z,14.10
2023-01-07T09:28:04.757Z,14.00
2023-01-07T09:30:31.912Z,13.90
2023-01-07T09:32:59.768Z,14.00
2023-01-07T09:35:27.187Z,14.00
2023-01-07T09:37:54.247Z,13.70
2023-01-07T09:40:27.879Z,13.50
2023-01-07T09:43:02.033Z,12.90
2023-01-07T09:45:35.625Z,12.80
2023-01-07T09:48:13.046Z,12.50
2023-01-07T09:50:54.932Z,12.20
2023-01-07T09:53:36.216Z,12.10
2023-01-07T09:56:11.373Z,11.70
2023-01-07T09:58:43.034Z,11.40
2023-01-07T10:01:17.894Z,11.30
2023-01-07T10:04:22.951Z,11.30
2023-01-07T10:07:13.422Z,11.20
2023-01-07T10:10:20.220Z,11.10
2023-01-07T10:13:27.337Z,11.20
2023-01-07T10:16:22.118Z,11.20
2023-01-07T10:18:56.630Z,11.10
2023-01-07T10:21:26.911Z,10.90
2023-01-07T10:24:03.442Z,10.90
2023-01-07T10:26:31.758Z,10.90
2023-01-07T10:29:11.485Z,11.00
2023-01-07T10:31:39.465Z,11.10
2023-01-07T10:34:14.834Z,11.20
2023-01-07T10:37:09.951Z,11.20
2023-01-07T10:39:42.215Z,11.20
2023-01-07T10:42:11.786Z,11.10
2023-01-07T10:44:49.775Z,11.00
2023-01-07T10:47:24.520Z,11.10
2023-01-07T10:50:19.054Z,11.10
2023-01-07T10:52:53.340Z,11.10
2023-01-07T10:55:41.543Z,11.20
2023-01-07T10:58:11.616Z,11.40
2023-01-07T11:00:40.779Z,11.40
2023-01-07T11:03:25.675Z,11.50
2023-01-07T11:05:58.057Z,11.60
2023-01-07T11:08:30.421Z,11.70
2023-01-07T11:10:58.860Z,11.70
2023-01-07T11:13:30.703Z,11.80
2023-01-07T11:16:08.374Z,11.80
2023-01-07T11:18:49.506Z,11.70
2023-01-07T11:21:42.921Z,11.70
2023-01-07T11:24:27.582Z,11.70
2023-01-07T11:27:16.212Z,11.70
2023-01-07T11:30:04.923Z,11.70
2023-01-07T11:32:35.599Z,11.70
2023-01-07T11:35:22.730Z,11.70
2023-01-07T11:37:51.074Z,11.70
2023-01-07T11:40:22.756Z,11.60
2023-01-07T11:43:10.019Z,11.50
2023-01-07T11:46:19.418Z,11.40
2023-01-07T11:48:38.762Z,11.40
2023-01-07T11:51:10.835Z,11.50
2023-01-07T11:53:57.837Z,11.50
2023-01-07T11:56:29.412Z,11.60
2023-01-07T11:59:13.558Z,11.70
2023-01-07T12:01:52.416Z,11.70
2023-01-07T12:04:20.563Z,11.70
2023-01-07T12:06:49.943Z,11.70
2023-01-07T12:09:33.911Z,11.80
2023-01-07T12:12:42.079Z,11.80
2023-01-07T12:15:30.957Z,11.90
2023-01-07T12:18:29.903Z,11.80
2023-01-07T12:20:59.718Z,11.70
2023-01-07T12:23:45.071Z,11.60
2023-01-07T12:26:16.632Z,11.60
2023-01-07T12:29:03.794Z,11.60
2023-01-07T12:31:38.696Z,11.60
2023-01-07T12:34:45.576Z,11.60
2023-01-07T12:37:32.791Z,11.60
2023-01-07T12:40:17.237Z,11.60
2023-01-07T12:42:54.055Z,11.60
2023-01-07T12:45:29.420Z,11.50
2023-01-07T12:48:03.992Z,11.50
2023-01-07T12:50:35.834Z,11.40
2023-01-07T12:53:24.517Z,11.50
2023-01-07T12:55:57.786Z,11.50
2023-01-07T12:58:47.246Z,11.50
2023-01-07T13:01:39.735Z,11.40
2023-01-07T13:04:26.939Z,11.50
2023-01-07T13:07:02.111Z,11.50
2023-01-07T13:09:29.446Z,11.50
2023-01-07T13:12:41.911Z,11.40
2023-01-07T13:15:15.591Z,11.50
2023-01-07T13:17:43.882Z,11.50
2023-01-07T13:20:13.797Z,11.50
2023-01-07T13:22:54.662Z,11.40
2023-01-07T13:25:26.415Z,11.40
2023-01-07T13:28:02.983Z,11.30
2023-01-07T13:30:58.731Z,11.20
2023-01-07T13:33:29.083Z,11.20
2023-01-07T13:36:03.513Z,11.20
2023-01-07T13:38:59.181Z,11.10
2023-01-07T13:41:42.354Z,11.10
2023-01-07T13:44:49.633Z,11.00
2023-01-07T13:47:20.149Z,11.10
2023-01-07T13:49:56.828Z,11.10
2023-01-07T13:52:28.093Z,11.00
2023-01-07T13:54:57.750Z,10.90
2023-01-07T13:57:24.932Z,10.80
2023-01-07T13:59:56.064Z,10.70
2023-01-07T14:02:24.557Z,10.70
2023-01-07T14:05:11.156Z,10.60
2023-01-07T14:07:49.026Z,10.50
2023-01-07T14:10:19.458Z,10.40
2023-01-07T14:13:24.398Z,10.40
2023-01-07T14:16:06.978Z,10.30
2023-01-07T14:19:02.566Z,10.10
2023-01-07T14:21:53.325Z,10.00
2023-01-07T14:24:32.556Z,9.90
2023-01-07T14:27:13.871Z,9.80
2023-01-07T14:29:48.215Z,9.70
2023-01-07T14:32:30.642Z,9.60
2023-01-07T14:35:08.255Z,9.50
2023-01-07T14:37:39.268Z,9.40
2023-01-07T14:40:26.320Z,9.30
2023-01-07T14:42:56.072Z,9.30
2023-01-07T14:45:44.157Z,9.20
2023-01-07T14:48:29.130Z,9.10
2023-01-07T14:50:56.123Z,9.00
2023-01-07T14:53:50.604Z,8.90
2023-01-07T14:56:21.908Z,8.80
2023-01-07T14:59:04.469Z,8.70
2023-01-07T15:01:44.699Z,8.70
2023-01-07T15:04:27.397Z,8.60
2023-01-07T15:06:57.151Z,8.50
2023-01-07T15:10:01.467Z,8.40
2023-01-07T15:12:53.815Z,8.30
2023-01-07T15:15:44.324Z,8.30
2023-01-07T15:18:12.648Z,8.20
2023-01-07T15:21:04.603Z,8.00
2023-01-07T15:23:47.492Z,7.90
2023-01-07T15:26:39.612Z,7.70
2023-01-07T15:29:23.372Z,7.60
2023-01-07T15:32:26.451Z,7.50
2023-01-07T15:34:54.532Z,7.40
2023-01-07T15:37:21.926Z,7.30
2023-01-07T15:39:59.106Z,7.20
2023-01-07T15:42:27.944Z,7.10
2023-01-07T15:44:57.843Z,7.00
2023-01-07T15:47:42.512Z,7.00
2023-01-07T15:50:28.816Z,6.90
2023-01-07T15:53:01.900Z,6.90
2023-01-07T15:55:37.381Z,6.80
2023-01-07T15:58:08.891Z,6.70
2023-01-07T16:00:36.565Z,6.60
2023-01-07T16:03:05.331Z,6.60
2023-01-07T16:05:32.767Z,6.60
2023-01-07T16:08:01.677Z,6.50
2023-01-07T16:10:32.636Z,6.40
2023-01-07T16:13:02.251Z,6.40
2023-01-07T16:15:32.460Z,6.30
2023-01-07T16:18:02.246Z,6.20
2023-01-07T16:20:37.366Z,6.10
2023-01-07T16:23:22.932Z,6.00
2023-01-07T16:25:57.557Z,5.80
2023-01-07T16:28:28.615Z,5.80
2023-01-07T16:30:57.718Z,5.70
2023-01-07T16:33:27.889Z,5.60
2023-01-07T16:35:59.004Z,5.60
2023-01-07T16:38:26.945Z,5.60
2023-01-07T16:40:55.093Z,5.50
2023-01-07T16:43:32.737Z,5.50
2023-01-07T16:46:27.381Z,5.50
2023-01-07T16:49:20.498Z,5.40
2023-01-07T16:52:04.600Z,5.40
2023-01-07T16:54:37.498Z,5.40
2023-01-07T16:57:11.552Z,5.40
2023-01-07T16:59:38.868Z,5.30
2023-01-07T17:02:25.619Z,5.30
2023-01-07T17:04:55.561Z,5.30
2023-01-07T17:07:26.203Z,5.20
2023-01-07T17:09:56.016Z,5.20
2023-01-07T17:12:35.383Z,5.10
2023-01-07T17:15:23.611Z,5.10
2023-01-07T17:17:51.412Z,5.00
2023-01-07T17:20:23.458Z,5.00
2023-01-07T17:22:51.824Z,4.90
2023-01-07T17:25:29.510Z,5.00
2023-01-07T17:28:00.989Z,5.00
2023-01-07T17:30:35.452Z,5.00
2023-01-07T17:33:03.570Z,4.90
2023-01-07T17:35:31.177Z,4.90
2023-01-07T17:37:58.485Z,4.80
2023-01-07T17:40:26.025Z,4.70
2023-01-07T17:43:13.210Z,4.70
2023-01-07T17:45:40.580Z,4.60
2023-01-07T17:48:14.319Z,4.60
2023-01-07T17:50:42.859Z,4.60
2023-01-07T17:53:22.254Z,4.60
2023-01-07T17:55:49.522Z,4.60
2023-01-07T17:58:35.133Z,4.50
2023-01-07T18:01:07.342Z,4.50
2023-01-07T18:03:34.870Z,4.50
2023-01-07T18:06:02.561Z,4.40
2023-01-07T18:08:30.795Z,4.30
2023-01-07T18:11:18.452Z,4.30
2023-01-07T18:13:46.186Z,4.30
2023-01-07T18:16:15.757Z,4.20
2023-01-07T18:18:43.226Z,4.10
2023-01-07T18:21:12.755Z,4.10
2023-01-07T18:23:40.190Z,4.00
2023-01-07T18:26:08.519Z,4.00
2023-01-07T18:28:36.588Z,4.00
2023-01-07T18:31:05.145Z,4.00
2023-01-07T18:33:35.271Z,4.00
2023-01-07T18:36:03.660Z,3.90
2023-01-07T18:38:31.962Z,3.80
2023-01-07T18:40:59.596Z,3.80
2023-01-07T18:43:26.949Z,3.80
2023-01-07T18:45:54.717Z,3.70
2023-01-07T18:48:22.352Z,3.60
2023-01-07T18:50:50.907Z,3.70
2023-01-07T18:53:19.978Z,3.80
2023-01-07T18:55:56.896Z,3.90
2023-01-07T18:58:24.786Z,3.80
2023-01-07T19:00:52.096Z,3.80
2023-01-07T19:03:19.438Z,3.80
2023-01-07T19:05:47.283Z,3.80
2023-01-07T19:08:14.623Z,3.80
2023-01-07T19:10:42.661Z,3.80
2023-01-07T19:13:09.949Z,3.70
2023-01-07T19:15:39.179Z,3.80
2023-01-07T19:18:08.001Z,3.70
2023-01-07T19:20:36.376Z,3.70
2023-01-07T19:23:03.827Z,3.70
2023-01-07T19:25:32.101Z,3.70
2023-01-07T19:28:00.460Z,3.70
2023-01-07T19:30:28.287Z,3.60
2023-01-07T19:32:55.966Z,3.60
2023-01-07T19:35:23.382Z,3.50
2023-01-07T19:37:50.722Z,3.40
2023-01-07T19:40:18.526Z,3.30
2023-01-07T19:42:48.700Z,3.30
2023-01-07T19:45:16.665Z,3.30
2023-01-07T19:47:44.366Z,3.30
2023-01-07T19:50:12.333Z,3.30
2023-01-07T19:52:39.581Z,3.30
2023-01-07T19:55:07.789Z,3.30
2023-01-07T19:57:35.293Z,3.30
2023-01-07T20:00:03.240Z,3.30
2023-01-07T20:02:33.225Z,3.30
2023-01-07T20:05:01.186Z,3.30
2023-01-07T20:07:33.998Z,3.30
2023-01-07T20:10:01.654Z,3.30
2023-01-07T20:12:29.531Z,3.30
2023-01-07T20:14:56.855Z,3.30
2023-01-07T20:17:24.874Z,3.30
2023-01-07T20:19:52.606Z,3.20
2023-01-07T20:22:20.293Z,3.20
2023-01-07T20:24:47.579Z,3.10
2023-01-07T20:27:14.812Z,3.00
2023-01-07T20:29:42.500Z,3.00
2023-01-07T20:32:10.243Z,3.00
2023-01-07T20:34:37.861Z,2.90
2023-01-07T20:37:05.648Z,2.90
2023-01-07T20:39:33.495Z,2.90
2023-01-07T20:42:01.062Z,2.90
2023-01-07T20:44:28.574Z,2.80
2023-01-07T20:46:55.848Z,2.80
2023-01-07T20:49:24.564Z,2.70
2023-01-07T20:51:51.778Z,2.60
2023-01-07T20:54:19.112Z,2.60
2023-01-07T20:56:46.445Z,2.60
2023-01-07T20:59:16.194Z,2.50
2023-01-07T21:01:43.909Z,2.50
2023-01-07T21:04:12.424Z,2.50
2023-01-07T21:06:40.309Z,2.50
2023-01-07T21:09:07.620Z,2.50
2023-01-07T21:11:35.129Z,2.50
2023-01-07T21:14:02.259Z,2.40
2023-01-07T21:16:29.964Z,2.40
2023-01-07T21:18:57.888Z,2.40
2023-01-07T21:21:25.519Z,2.30
2023-01-07T21:23:54.151Z,2.30
2023-01-07T21:26:23.661Z,2.30
2023-01-07T21:28:56.328Z,2.30
2023-01-07T21:31:24.088Z,2.30
2023-01-07T21:33:55.071Z,2.40
2023-01-07T21:36:23.499Z,2.30
2023-01-07T21:38:56.403Z,2.30
2023-01-07T21:41:25.204Z,2.20
2023-01-07T21:43:52.621Z,2.20
2023-01-07T21:46:22.713Z,2.30
2023-01-07T21:48:50.583Z,2.20
2023-01-07T21:51:24.328Z,2.20
2023-01-07T21:53:56.028Z,2.20
2023-01-07T21:56:25.244Z,2.20
2023-01-07T21:58:52.986Z,2.20
2023-01-07T22:01:21.061Z,2.20
2023-01-07T22:03:50.113Z,2.10
2023-01-07T22:06:20.450Z,2.10
2023-01-07T22:08:48.728Z,2.00
2023-01-07T22:11:17.960Z,2.00
2023-01-07T22:13:49.076Z,2.00
2023-01-07T22:16:16.367Z,1.90
2023-01-07T22:18:43.617Z,1.90
2023-01-07T22:21:11.023Z,1.90
2023-01-07T22:23:38.498Z,1.80
2023-01-07T22:26:07.563Z,1.80
2023-01-07T22:28:37.297Z,1.70
2023-01-07T22:31:27.017Z,1.70
2023-01-07T22:33:55.354Z,1.70
2023-01-07T22:36:22.649Z,1.60
2023-01-07T22:38:51.424Z,1.60
2023-01-07T22:41:19.067Z,1.60
2023-01-07T22:43:46.393Z,1.60
2023-01-07T22:46:23.548Z,1.60
2023-01-07T22:48:52.661Z,1.50
2023-01-07T22:51:32.376Z,1.40
2023-01-07T22:54:00.959Z,1.40
2023-01-07T22:56:29.016Z,1.40
2023-01-07T22:58:56.437Z,1.40
2023-01-07T23:01:23.667Z,1.40
2023-01-07T23:03:51.426Z,1.40
2023-01-07T23:06:18.920Z,1.50
2023-01-07T23:08:48.232Z,1.50
2023-01-07T23:11:36.021Z,1.50
2023-01-07T23:14:04.047Z,1.50
2023-01-07T23:16:31.685Z,1.50
2023-01-07T23:18:58.929Z,1.50
2023-01-07T23:21:26.207Z,1.40
2023-01-07T23:23:53.397Z,1.50
2023-01-07T23:26:20.491Z,1.40
2023-01-07T23:28:47.592Z,1.50
2023-01-07T23:31:14.880Z,1.50
2023-01-07T23:33:42.218Z,1.40
2023-01-07T23:36:10.515Z,1.50
2023-01-07T23:38:37.799Z,1.40
2023-01-07T23:41:08.380Z,1.50
2023-01-07T23:43:36.076Z,1.50
2023-01-07T23:46:05.093Z,1.50
2023-01-07T23:48:34.195Z,1.40
2023-01-07T23:51:11.548Z,1.40
2023-01-07T23:53:39.080Z,1.40
2023-01-07T23:56:06.978Z,1.40
2023-01-07T23:58:35.400Z,1.40
